Alcorn State University, Mississippi
Current Conditions -  °F | °C
As of 2:35 AM on Sunday 23 Nov 2014 (Local Time) from KHEZ Reporting Station
NA  
Wind Chill: 63°   Ceiling: NA
Heat Index: 63°   Visibility: 10mi
Dew Point: 57°   Wind: 10mph
Humidity: 82%   Direction: 120°ESE
Pressure: 29.77"   Gusts: 20mph
Location:  31.8192°N, 91.1912°W
Report Text: KHEZ 230835Z AUTO 12009G17KT 10SM 17/14 A2977 RMK AO1
Loading
Personal Weather Stations






























Interactive Weather Map New forecast layout! Learn more

10-Day Weather Forecast

Advertisements
Track Severe Weather on mobile